createdAt,value
2022-12-22T00:01:54.911Z,9.63
2022-12-22T00:04:40.696Z,9.18
2022-12-22T00:07:25.921Z,10.48
2022-12-22T00:10:11.040Z,9.82
2022-12-22T00:12:57.475Z,9.20
2022-12-22T00:15:42.624Z,9.77
2022-12-22T00:18:32.741Z,11.52
2022-12-22T00:21:17.872Z,8.88
2022-12-22T00:24:03.068Z,12.73
2022-12-22T00:26:48.745Z,11.18
2022-12-22T00:29:34.487Z,13.30
2022-12-22T00:32:20.646Z,11.25
2022-12-22T00:35:06.311Z,11.93
2022-12-22T00:37:53.407Z,11.77
2022-12-22T00:40:46.675Z,11.32
2022-12-22T00:43:32.381Z,15.93
2022-12-22T00:46:18.772Z,13.38
2022-12-22T00:49:03.834Z,11.60
2022-12-22T00:51:50.075Z,12.15
2022-12-22T00:54:35.837Z,14.95
2022-12-22T00:57:21.489Z,16.38
2022-12-22T01:00:07.977Z,14.02
2022-12-22T01:02:53.808Z,13.30
2022-12-22T01:05:39.194Z,13.82
2022-12-22T01:08:24.440Z,14.00
2022-12-22T01:11:09.594Z,12.75
2022-12-22T01:13:54.868Z,12.85
2022-12-22T01:16:39.977Z,11.30
2022-12-22T01:19:25.047Z,13.82
2022-12-22T01:22:10.181Z,12.75
2022-12-22T01:24:55.240Z,14.77
2022-12-22T01:27:40.489Z,16.13
2022-12-22T01:30:26.516Z,17.45
2022-12-22T01:33:11.711Z,14.35
2022-12-22T01:35:56.762Z,13.35
2022-12-22T01:38:41.635Z,13.88
2022-12-22T01:41:29.459Z,13.95
2022-12-22T01:44:14.466Z,14.15
2022-12-22T01:47:02.555Z,12.85
2022-12-22T01:49:52.309Z,14.15
2022-12-22T01:52:39.374Z,16.70
2022-12-22T01:55:27.887Z,21.15
2022-12-22T01:58:13.175Z,16.30
2022-12-22T02:00:59.008Z,15.05
2022-12-22T02:03:44.239Z,14.50
2022-12-22T02:06:48.481Z,16.27
2022-12-22T02:09:39.683Z,17.58
2022-12-22T02:12:36.149Z,14.88
2022-12-22T02:15:43.953Z,16.52
2022-12-22T02:18:43.391Z,12.90
2022-12-22T02:21:30.685Z,13.82
2022-12-22T02:24:34.664Z,13.50
2022-12-22T02:27:20.593Z,16.00
2022-12-22T02:30:12.411Z,15.05
2022-12-22T02:33:06.929Z,16.05
2022-12-22T02:36:08.237Z,11.68
2022-12-22T02:39:15.314Z,12.38
2022-12-22T02:42:17.349Z,14.57
2022-12-22T02:45:02.400Z,13.00
2022-12-22T02:48:16.427Z,15.63
2022-12-22T02:51:05.744Z,16.17
2022-12-22T02:53:51.154Z,14.18
2022-12-22T02:56:36.113Z,15.30
2022-12-22T02:59:21.169Z,15.10
2022-12-22T03:02:06.411Z,13.98
2022-12-22T03:04:51.842Z,17.05
2022-12-22T03:07:36.839Z,13.60
2022-12-22T03:10:22.408Z,12.80
2022-12-22T03:13:07.582Z,17.60
2022-12-22T03:15:52.785Z,15.20
2022-12-22T03:18:38.056Z,13.55
2022-12-22T03:21:23.249Z,9.90
2022-12-22T03:24:08.453Z,12.23
2022-12-22T03:26:35.035Z,9.25
2022-12-22T03:29:01.618Z,10.98
2022-12-22T03:31:28.282Z,12.25
2022-12-22T03:33:55.079Z,11.70
2022-12-22T03:36:21.914Z,13.25
2022-12-22T03:38:48.479Z,13.35
2022-12-22T03:41:33.269Z,13.55
2022-12-22T03:44:18.654Z,12.45
2022-12-22T03:46:45.292Z,12.15
2022-12-22T03:49:12.017Z,12.55
2022-12-22T03:51:44.297Z,11.00
2022-12-22T03:54:12.294Z,12.52
2022-12-22T03:56:39.443Z,11.05
2022-12-22T03:59:06.654Z,11.38
2022-12-22T04:01:34.694Z,12.60
2022-12-22T04:04:01.327Z,11.38
2022-12-22T04:06:28.004Z,11.52
2022-12-22T04:08:54.577Z,12.18
2022-12-22T04:11:39.649Z,11.88
2022-12-22T04:14:06.245Z,11.70
2022-12-22T04:16:32.894Z,12.77
2022-12-22T04:18:59.664Z,11.25
2022-12-22T04:21:27.182Z,9.55
2022-12-22T04:23:53.913Z,11.00
2022-12-22T04:26:23.047Z,10.45
2022-12-22T04:28:50.256Z,10.05
2022-12-22T04:31:16.948Z,11.07
2022-12-22T04:33:43.587Z,10.80
2022-12-22T04:36:10.664Z,10.13
2022-12-22T04:38:37.840Z,11.80
2022-12-22T04:41:04.472Z,11.20
2022-12-22T04:43:31.089Z,10.30
2022-12-22T04:45:57.762Z,9.52
2022-12-22T04:48:26.053Z,9.80
2022-12-22T04:50:54.435Z,11.88
2022-12-22T04:53:21.875Z,11.15
2022-12-22T04:56:08.991Z,10.02
2022-12-22T04:58:35.625Z,10.25
2022-12-22T05:01:14.263Z,8.73
2022-12-22T05:03:41.137Z,10.18
2022-12-22T05:06:08.329Z,8.82
2022-12-22T05:08:34.989Z,10.20
2022-12-22T05:11:02.956Z,10.00
2022-12-22T05:13:33.345Z,11.68
2022-12-22T05:16:06.968Z,10.90
2022-12-22T05:18:34.952Z,11.30
2022-12-22T05:21:07.421Z,10.27
2022-12-22T05:23:33.987Z,10.02
2022-12-22T05:26:00.545Z,10.38
2022-12-22T05:28:27.231Z,11.60
2022-12-22T05:30:54.188Z,11.07
2022-12-22T05:33:21.452Z,10.82
2022-12-22T05:35:48.002Z,9.15
2022-12-22T05:38:14.551Z,10.80
2022-12-22T05:40:41.135Z,9.70
2022-12-22T05:43:07.705Z,7.90
2022-12-22T05:45:34.257Z,11.40
2022-12-22T05:48:00.897Z,10.05
2022-12-22T05:50:27.724Z,9.23
2022-12-22T05:52:54.774Z,8.75
2022-12-22T05:55:21.364Z,9.23
2022-12-22T05:57:47.921Z,11.25
2022-12-22T06:00:16.644Z,10.45
2022-12-22T06:02:44.025Z,10.13
2022-12-22T06:05:11.876Z,8.73
2022-12-22T06:07:38.499Z,10.23
2022-12-22T06:10:11.651Z,8.43
2022-12-22T06:12:38.820Z,9.07
2022-12-22T06:15:06.293Z,11.18
2022-12-22T06:17:32.867Z,10.93
2022-12-22T06:19:59.453Z,9.82
2022-12-22T06:22:26.077Z,11.27
2022-12-22T06:24:52.644Z,10.00
2022-12-22T06:27:19.227Z,9.18
2022-12-22T06:29:45.790Z,9.77
2022-12-22T06:32:12.346Z,10.52
2022-12-22T06:34:38.918Z,10.02
2022-12-22T06:37:05.455Z,10.32
2022-12-22T06:39:32.108Z,10.98
2022-12-22T06:42:17.331Z,9.18
2022-12-22T06:44:43.903Z,14.10
2022-12-22T06:47:10.501Z,11.32
2022-12-22T06:49:37.151Z,13.35
2022-12-22T06:52:08.514Z,13.95
2022-12-22T06:54:35.366Z,11.55
2022-12-22T06:57:01.961Z,12.45
2022-12-22T06:59:29.704Z,12.50
2022-12-22T07:01:56.348Z,14.88
2022-12-22T07:04:22.993Z,9.57
2022-12-22T07:06:49.648Z,13.57
2022-12-22T07:09:16.276Z,13.43
2022-12-22T07:11:42.893Z,13.48
2022-12-22T07:14:09.537Z,12.68
2022-12-22T07:16:36.221Z,10.32
2022-12-22T07:19:03.056Z,11.20
2022-12-22T07:21:29.681Z,14.27
2022-12-22T07:23:56.262Z,11.48
2022-12-22T07:26:22.875Z,10.32
2022-12-22T07:28:49.434Z,9.13
2022-12-22T07:31:17.072Z,12.07
2022-12-22T07:33:43.674Z,9.30
2022-12-22T07:36:15.672Z,9.18
2022-12-22T07:38:44.604Z,10.13
2022-12-22T07:41:31.791Z,11.50
2022-12-22T07:43:59.370Z,12.05
2022-12-22T07:46:27.997Z,9.40
2022-12-22T07:51:41.597Z,8.93
2022-12-22T07:54:09.967Z,9.55
2022-12-22T07:56:36.762Z,8.45
2022-12-22T07:59:03.550Z,9.35
2022-12-22T08:01:30.421Z,10.85
2022-12-22T08:03:58.291Z,8.57
2022-12-22T08:06:25.250Z,8.73
2022-12-22T08:08:52.159Z,7.85
2022-12-22T08:11:19.181Z,9.27
2022-12-22T08:13:46.631Z,8.38
2022-12-22T08:16:14.122Z,6.47
2022-12-22T08:18:41.313Z,7.57
2022-12-22T08:21:08.845Z,6.35
2022-12-22T08:23:35.870Z,4.95
2022-12-22T08:26:11.710Z,3.13
2022-12-22T08:28:42.319Z,19.00
2022-12-22T08:31:09.473Z,7.72
2022-12-22T08:33:36.355Z,2.80
2022-12-22T08:36:08.117Z,6.20
2022-12-22T08:38:35.170Z,14.60
2022-12-22T08:41:01.747Z,9.93
2022-12-22T08:43:30.819Z,12.40
2022-12-22T08:45:57.524Z,9.80
2022-12-22T08:48:24.215Z,8.35
2022-12-22T08:50:50.793Z,10.63
2022-12-22T08:53:37.647Z,7.68
2022-12-22T08:56:04.147Z,6.22
2022-12-22T08:58:30.696Z,58.05
2022-12-22T09:00:57.768Z,9.52
2022-12-22T09:03:24.474Z,6.97
2022-12-22T09:05:51.157Z,46.05
2022-12-22T09:08:17.709Z,23.65
2022-12-22T09:10:44.351Z,11.07
2022-12-22T09:13:10.990Z,8.68
2022-12-22T09:15:37.610Z,9.98
2022-12-22T09:18:04.370Z,19.15
2022-12-22T09:20:30.933Z,13.20
2022-12-22T09:22:57.544Z,15.73
2022-12-22T09:25:24.091Z,19.52
2022-12-22T09:27:50.713Z,19.15
2022-12-22T09:30:17.544Z,26.20
2022-12-22T09:32:44.124Z,17.67
2022-12-22T09:35:10.661Z,18.83
2022-12-22T09:37:37.208Z,21.30
2022-12-22T09:40:04.156Z,20.45
2022-12-22T09:42:33.675Z,23.45
2022-12-22T09:45:00.379Z,22.08
2022-12-22T09:47:40.292Z,20.88
2022-12-22T09:50:08.920Z,21.40
2022-12-22T09:55:13.757Z,22.00
2022-12-22T09:57:40.313Z,20.92
2022-12-22T10:00:18.852Z,18.90
2022-12-22T10:03:03.151Z,22.55
2022-12-22T10:05:43.523Z,18.63
2022-12-22T10:08:15.891Z,21.38
2022-12-22T10:10:42.557Z,19.52
2022-12-22T10:13:17.934Z,21.08
2022-12-22T10:15:44.798Z,21.63
2022-12-22T10:18:18.768Z,20.15
2022-12-22T10:20:48.211Z,18.77
2022-12-22T10:23:27.133Z,17.40
2022-12-22T10:28:55.525Z,24.33
2022-12-22T10:31:33.887Z,21.15
2022-12-22T10:34:12.958Z,21.60
2022-12-22T10:36:39.874Z,22.95
2022-12-22T10:39:09.754Z,23.40
2022-12-22T10:41:47.817Z,23.88
2022-12-22T10:44:17.480Z,22.67
2022-12-22T10:46:47.287Z,23.42
2022-12-22T10:49:22.918Z,25.40
2022-12-22T10:52:09.148Z,27.35
2022-12-22T10:54:36.709Z,33.88
2022-12-22T10:57:22.846Z,27.23
2022-12-22T11:00:00.398Z,31.60
2022-12-22T11:02:30.147Z,32.97
2022-12-22T11:05:09.004Z,31.42
2022-12-22T11:07:43.160Z,32.55
2022-12-22T11:10:12.933Z,29.55
2022-12-22T11:13:02.560Z,27.75
2022-12-22T11:15:43.430Z,31.00
2022-12-22T11:18:41.788Z,27.17
2022-12-22T11:21:39.276Z,31.88
2022-12-22T11:24:39.595Z,30.35
2022-12-22T11:27:24.834Z,31.27
2022-12-22T11:30:29.814Z,29.75
2022-12-22T11:33:03.651Z,30.15
2022-12-22T11:35:34.529Z,25.77
2022-12-22T11:38:40.188Z,25.98
2022-12-22T11:41:25.428Z,28.48
2022-12-22T11:44:01.050Z,26.33
2022-12-22T11:46:49.133Z,24.60
2022-12-22T11:49:38.031Z,21.73
2022-12-22T11:52:35.761Z,24.20
2022-12-22T11:55:11.493Z,24.13
2022-12-22T11:57:52.034Z,20.23
2022-12-22T12:00:19.761Z,21.73
2022-12-22T12:02:55.693Z,23.80
2022-12-22T12:05:59.163Z,24.55
2022-12-22T12:08:34.805Z,22.45
2022-12-22T12:11:26.541Z,20.05
2022-12-22T12:13:59.079Z,20.98
2022-12-22T12:16:28.608Z,19.70
2022-12-22T12:19:26.555Z,20.17
2022-12-22T12:21:58.369Z,22.83
2022-12-22T12:24:56.177Z,19.98
2022-12-22T12:27:50.979Z,20.15
2022-12-22T12:33:42.582Z,16.08
2022-12-22T12:36:13.987Z,13.73
2022-12-22T12:39:18.199Z,12.32
2022-12-22T12:41:57.187Z,11.65
2022-12-22T12:44:27.589Z,13.50
2022-12-22T12:46:56.925Z,12.73
2022-12-22T12:49:38.662Z,15.77
2022-12-22T12:52:07.010Z,14.15
2022-12-22T12:54:34.786Z,13.10
2022-12-22T12:57:07.379Z,12.15
2022-12-22T12:59:40.221Z,11.27
2022-12-22T13:02:29.987Z,9.77
2022-12-22T13:05:05.415Z,9.23
2022-12-22T13:08:04.149Z,12.00
2022-12-22T13:10:32.454Z,11.70
2022-12-22T13:12:59.276Z,13.55
2022-12-22T13:15:34.776Z,10.68
2022-12-22T13:18:03.846Z,13.27
2022-12-22T13:20:36.052Z,11.70
2022-12-22T13:23:05.003Z,10.63
2022-12-22T13:25:41.946Z,11.77
2022-12-22T13:28:15.863Z,9.27
2022-12-22T13:30:47.642Z,12.55
2022-12-22T13:33:16.694Z,14.63
2022-12-22T13:35:47.770Z,16.52
2022-12-22T13:38:27.038Z,11.20
2022-12-22T13:40:53.767Z,12.25
2022-12-22T13:43:20.897Z,9.48
2022-12-22T13:45:49.601Z,13.15
2022-12-22T13:48:20.080Z,9.70
2022-12-22T13:50:54.369Z,11.85
2022-12-22T13:56:36.466Z,13.60
2022-12-22T13:59:03.600Z,11.52
2022-12-22T14:01:30.315Z,12.02
2022-12-22T14:04:07.962Z,13.38
2022-12-22T14:06:38.629Z,28.60
2022-12-22T14:09:12.604Z,13.18
2022-12-22T14:11:42.796Z,12.40
2022-12-22T14:14:24.685Z,12.45
2022-12-22T14:16:52.577Z,13.13
2022-12-22T14:19:20.688Z,13.25
2022-12-22T14:22:00.909Z,13.98
2022-12-22T14:24:32.082Z,17.15
2022-12-22T14:27:01.564Z,18.45
2022-12-22T14:29:28.899Z,13.98
2022-12-22T14:31:57.680Z,13.90
2022-12-22T14:34:34.844Z,12.77
2022-12-22T14:37:02.529Z,17.65
2022-12-22T14:39:31.908Z,16.87
2022-12-22T14:42:01.516Z,16.02
2022-12-22T14:44:45.571Z,13.38
2022-12-22T14:47:17.430Z,18.10
2022-12-22T14:49:51.304Z,21.10
2022-12-22T14:52:24.093Z,18.48
2022-12-22T14:54:52.337Z,18.30
2022-12-22T14:57:32.482Z,15.90
2022-12-22T15:00:07.113Z,15.93
2022-12-22T15:02:40.609Z,14.07
2022-12-22T15:05:35.651Z,14.25
2022-12-22T15:08:08.072Z,20.05
2022-12-22T15:10:39.756Z,19.90
2022-12-22T15:13:12.370Z,14.43
2022-12-22T15:15:39.067Z,18.35
2022-12-22T15:18:05.879Z,17.40
2022-12-22T15:20:38.921Z,18.30
2022-12-22T15:23:14.389Z,16.95
2022-12-22T15:25:41.109Z,19.40
2022-12-22T15:28:07.693Z,18.90
2022-12-22T15:30:34.479Z,17.70
2022-12-22T15:33:01.129Z,19.63
2022-12-22T15:35:31.149Z,19.45
2022-12-22T15:37:58.076Z,19.45
2022-12-22T15:40:26.166Z,16.55
2022-12-22T15:42:53.126Z,20.40
2022-12-22T15:45:21.382Z,18.73
2022-12-22T15:47:53.433Z,16.48
2022-12-22T15:50:23.671Z,21.35
2022-12-22T15:52:53.017Z,18.25
2022-12-22T15:55:20.358Z,21.40
2022-12-22T15:57:50.381Z,20.55
2022-12-22T16:00:18.009Z,22.63
2022-12-22T16:02:44.845Z,19.10
2022-12-22T16:05:12.450Z,21.48
2022-12-22T16:07:40.501Z,21.85
2022-12-22T16:10:16.950Z,21.90
2022-12-22T16:12:49.952Z,21.33
2022-12-22T16:15:16.713Z,21.30
2022-12-22T16:17:43.286Z,20.65
2022-12-22T16:20:09.982Z,24.17
2022-12-22T16:22:36.994Z,21.48
2022-12-22T16:25:07.141Z,22.75
2022-12-22T16:27:35.208Z,24.63
2022-12-22T16:30:01.826Z,23.05
2022-12-22T16:32:30.297Z,23.10
2022-12-22T16:35:01.377Z,23.83
2022-12-22T16:37:27.970Z,21.25
2022-12-22T16:39:54.822Z,22.23
2022-12-22T16:45:10.621Z,24.63
2022-12-22T16:47:37.198Z,25.92
2022-12-22T16:50:04.087Z,27.80
2022-12-22T16:52:41.174Z,21.73
2022-12-22T16:55:19.434Z,21.25
2022-12-22T16:57:46.437Z,20.67
2022-12-22T17:00:21.549Z,22.90
2022-12-22T17:02:51.233Z,20.20
2022-12-22T17:05:44.376Z,19.65
2022-12-22T17:08:27.681Z,22.38
2022-12-22T17:10:55.677Z,21.20
2022-12-22T17:13:22.352Z,23.13
2022-12-22T17:15:48.973Z,23.13
2022-12-22T17:18:20.862Z,25.23
2022-12-22T17:20:49.603Z,23.15
2022-12-22T17:23:35.429Z,25.65
2022-12-22T17:26:06.131Z,28.77
2022-12-22T17:28:33.367Z,25.25
2022-12-22T17:30:59.972Z,23.92
2022-12-22T17:33:26.554Z,25.42
2022-12-22T17:35:53.272Z,22.70
2022-12-22T17:38:21.270Z,19.23
2022-12-22T17:40:49.175Z,25.10
2022-12-22T17:43:17.492Z,26.60
2022-12-22T17:45:48.240Z,28.25
2022-12-22T17:48:16.105Z,25.02
2022-12-22T17:50:44.415Z,26.58
2022-12-22T17:53:15.058Z,26.17
2022-12-22T17:56:07.263Z,24.02
2022-12-22T17:58:28.205Z,28.98
2022-12-22T18:00:54.753Z,29.38
2022-12-22T18:03:21.451Z,26.38
2022-12-22T18:05:49.281Z,27.17
2022-12-22T18:08:18.642Z,30.90
2022-12-22T18:10:45.751Z,25.17
2022-12-22T18:13:25.160Z,24.10
2022-12-22T18:15:53.172Z,24.58
2022-12-22T18:18:20.936Z,22.23
2022-12-22T18:21:06.677Z,28.55
2022-12-22T18:23:36.518Z,26.05
2022-12-22T18:28:30.344Z,23.98
2022-12-22T18:30:56.918Z,25.15
2022-12-22T18:33:23.518Z,24.55
2022-12-22T18:35:50.236Z,28.67
2022-12-22T18:38:33.838Z,27.30
2022-12-22T18:41:00.580Z,26.42
2022-12-22T18:43:27.162Z,30.10
2022-12-22T18:45:53.810Z,27.33
2022-12-22T18:48:20.411Z,27.48
2022-12-22T18:50:47.050Z,27.33
2022-12-22T18:53:24.825Z,30.52
2022-12-22T18:55:51.384Z,27.65
2022-12-22T18:58:18.099Z,27.90
2022-12-22T19:00:45.136Z,26.80
2022-12-22T19:03:28.975Z,24.48
2022-12-22T19:05:56.697Z,27.65
2022-12-22T19:08:26.100Z,28.27
2022-12-22T19:10:58.672Z,29.63
2022-12-22T19:13:28.459Z,30.95
2022-12-22T19:15:55.435Z,26.27
2022-12-22T19:18:26.519Z,26.63
2022-12-22T19:20:55.513Z,23.90
2022-12-22T19:23:23.586Z,26.92
2022-12-22T19:25:53.369Z,27.92
2022-12-22T19:28:32.278Z,31.50
2022-12-22T19:30:59.433Z,30.15
2022-12-22T19:33:29.499Z,30.27
2022-12-22T19:35:57.867Z,28.52
2022-12-22T19:38:26.372Z,26.05
2022-12-22T19:43:20.157Z,30.50
2022-12-22T19:45:49.874Z,34.42
2022-12-22T19:48:22.378Z,29.13
2022-12-22T19:50:49.861Z,27.50
2022-12-22T19:53:16.604Z,29.50
2022-12-22T19:55:45.648Z,29.45
2022-12-22T19:58:23.722Z,29.90
2022-12-22T20:00:50.721Z,29.35
2022-12-22T20:03:21.926Z,29.67
2022-12-22T20:05:49.137Z,26.45
2022-12-22T20:08:15.992Z,26.95
2022-12-22T20:10:43.291Z,25.95
2022-12-22T20:13:21.557Z,31.15
2022-12-22T20:15:48.901Z,27.45
2022-12-22T20:18:19.457Z,27.90
2022-12-22T20:20:54.061Z,26.88
2022-12-22T20:23:24.475Z,26.17
2022-12-22T20:25:54.131Z,25.25
2022-12-22T20:28:23.172Z,22.73
2022-12-22T20:30:50.284Z,25.38
2022-12-22T20:33:18.590Z,22.85
2022-12-22T20:35:46.405Z,24.52
2022-12-22T20:38:19.445Z,25.67
2022-12-22T20:40:47.900Z,23.35
2022-12-22T20:43:20.054Z,22.15
2022-12-22T20:45:49.226Z,20.95
2022-12-22T20:48:40.162Z,23.90
2022-12-22T20:51:10.608Z,24.73
2022-12-22T20:53:37.194Z,22.00
2022-12-22T20:56:04.008Z,21.38
2022-12-22T20:58:34.130Z,22.58
2022-12-22T21:01:01.957Z,24.50
2022-12-22T21:03:28.851Z,24.17
2022-12-22T21:05:55.609Z,23.20
2022-12-22T21:08:25.226Z,23.33
2022-12-22T21:10:54.166Z,22.23
2022-12-22T21:13:21.331Z,23.08
2022-12-22T21:15:50.719Z,19.38
2022-12-22T21:18:19.934Z,19.95
2022-12-22T21:20:47.769Z,20.02
2022-12-22T21:23:16.415Z,18.98
2022-12-22T21:28:24.030Z,22.33
2022-12-22T21:30:50.660Z,23.20
2022-12-22T21:33:17.295Z,21.60
2022-12-22T21:35:44.069Z,18.52
2022-12-22T21:38:16.881Z,20.52
2022-12-22T21:40:46.819Z,20.58
2022-12-22T21:43:14.548Z,21.55
2022-12-22T21:45:43.039Z,22.07
2022-12-22T21:48:15.978Z,20.25
2022-12-22T21:50:42.557Z,19.98
2022-12-22T21:53:09.188Z,18.15
2022-12-22T21:55:37.922Z,18.88
2022-12-22T21:58:05.950Z,17.13
2022-12-22T22:00:33.351Z,16.52
2022-12-22T22:03:01.945Z,20.00
2022-12-22T22:05:31.611Z,17.65
2022-12-22T22:07:58.775Z,17.05
2022-12-22T22:10:30.469Z,15.93
2022-12-22T22:12:57.136Z,15.35
2022-12-22T22:15:25.327Z,14.23
2022-12-22T22:17:51.984Z,16.67
2022-12-22T22:20:21.064Z,13.70
2022-12-22T22:22:49.078Z,16.90
2022-12-22T22:25:16.571Z,16.65
2022-12-22T22:27:47.632Z,14.18
2022-12-22T22:30:19.689Z,13.85
2022-12-22T22:32:46.873Z,15.48
2022-12-22T22:35:13.702Z,15.60
2022-12-22T22:37:40.928Z,17.15
2022-12-22T22:40:09.874Z,15.65
2022-12-22T22:42:37.440Z,16.23
2022-12-22T22:45:05.584Z,17.75
2022-12-22T22:47:32.666Z,15.52
2022-12-22T22:49:59.481Z,15.98
2022-12-22T22:52:26.320Z,16.70
2022-12-22T22:54:52.931Z,16.30
2022-12-22T22:57:19.576Z,18.50
2022-12-22T22:59:46.189Z,17.60
2022-12-22T23:02:14.849Z,16.42
2022-12-22T23:04:42.052Z,17.08
2022-12-22T23:07:09.075Z,17.17
2022-12-22T23:09:35.677Z,19.75
2022-12-22T23:12:02.298Z,17.15
2022-12-22T23:14:28.885Z,16.58
2022-12-22T23:16:55.561Z,17.17
2022-12-22T23:19:22.321Z,17.20
2022-12-22T23:21:48.863Z,17.00
2022-12-22T23:24:16.556Z,17.35
2022-12-22T23:26:43.145Z,20.47
2022-12-22T23:29:09.690Z,22.10
2022-12-22T23:31:36.566Z,20.77
2022-12-22T23:34:03.747Z,18.60
2022-12-22T23:36:30.421Z,19.77
2022-12-22T23:38:57.063Z,28.85
2022-12-22T23:41:24.004Z,20.10
2022-12-22T23:43:50.685Z,25.55
2022-12-22T23:46:17.763Z,24.25
2022-12-22T23:48:44.442Z,28.38
2022-12-22T23:51:11.829Z,25.88
2022-12-22T23:53:38.999Z,26.63
2022-12-22T23:56:05.932Z,32.30
2022-12-22T23:58:32.504Z,28.65
